East Franklin, Vermont
Current Conditions -  °F | °C
As of 7:35 PM on Monday 24 Nov 2014 (Local Time) from KFSO Reporting Station
Broken Clouds Broken Clouds  
Wind Chill: 16°   Ceiling: 12000
Heat Index: 16°   Visibility: 10mi
Dew Point: 12°   Wind: 7mph
Humidity: 82%   Direction: 200°SSW
Pressure: 29.37"   Gusts: NA
Location:  44.9656°N, 72.8975°W
Report Text: KFSO 250035Z AUTO 20006KT 10SM SCT075 BKN120 16/12 A2937 RMK AO2 T01550124
Loading
Personal Weather Stations






























Interactive Weather Map New forecast layout! Learn more

10-Day Weather Forecast

Advertisements
Track Severe Weather on mobile